createdAt,value
2023-03-06T05:39:00.899Z,87.26
2023-03-06T05:41:27.783Z,87.59
2023-03-06T05:44:00.001Z,87.90
2023-03-06T05:46:27.151Z,87.99
2023-03-06T05:48:54.703Z,88.58
2023-03-06T05:51:21.414Z,89.29
2023-03-06T05:53:48.080Z,89.75
2023-03-06T05:56:21.172Z,89.89
2023-03-06T05:58:48.049Z,90.20
2023-03-06T06:01:17.030Z,90.31
2023-03-06T06:03:45.184Z,90.51
2023-03-06T06:06:13.037Z,90.64
2023-03-06T06:08:43.498Z,90.97
2023-03-06T06:11:11.805Z,91.43
2023-03-06T06:13:38.812Z,91.57
2023-03-06T06:16:10.964Z,91.47
2023-03-06T06:18:41.041Z,91.40
2023-03-06T06:21:12.490Z,91.29
2023-03-06T06:23:41.366Z,90.97
2023-03-06T06:26:09.063Z,90.60
2023-03-06T06:28:41.472Z,90.58
2023-03-06T06:31:17.315Z,90.53
2023-03-06T06:34:05.556Z,91.10
2023-03-06T06:44:17.378Z,93.40
2023-03-06T06:47:22.237Z,93.43
2023-03-06T06:50:18.567Z,93.73
2023-03-06T06:52:46.368Z,93.32
2023-03-06T06:55:22.754Z,93.05
2023-03-06T06:57:55.552Z,93.13
2023-03-06T07:00:24.012Z,93.90
2023-03-06T07:02:52.100Z,95.29
2023-03-06T07:05:20.861Z,95.81
2023-03-06T07:07:51.105Z,96.81
2023-03-06T07:10:19.990Z,97.31
2023-03-06T07:12:48.765Z,97.92
2023-03-06T07:15:16.853Z,98.89
2023-03-06T07:17:43.734Z,99.40
2023-03-06T07:20:13.408Z,99.84
2023-03-06T07:22:50.865Z,100.00
2023-03-06T07:25:18.743Z,100.00
2023-03-06T07:27:53.432Z,100.00
2023-03-06T07:30:22.088Z,100.00
2023-03-06T07:32:52.114Z,100.00
2023-03-06T07:35:20.662Z,100.00
2023-03-06T07:37:47.872Z,100.00
2023-03-06T07:40:14.883Z,100.00
2023-03-06T07:42:42.274Z,100.00
2023-03-06T07:45:12.106Z,100.00
2023-03-06T07:47:39.274Z,100.00
2023-03-06T07:50:08.535Z,100.00
2023-03-06T07:52:35.278Z,100.00
2023-03-06T07:55:02.048Z,100.00
2023-03-06T07:57:29.089Z,100.00
2023-03-06T07:59:55.793Z,100.00
2023-03-06T08:02:23.181Z,100.00
2023-03-06T08:04:53.717Z,100.00
2023-03-06T08:07:20.699Z,100.00
2023-03-06T08:09:47.665Z,100.00
2023-03-06T08:12:16.628Z,100.00
2023-03-06T08:14:43.426Z,100.00
2023-03-06T08:17:15.043Z,100.00
2023-03-06T08:19:42.903Z,100.00
2023-03-06T08:22:10.631Z,100.00
2023-03-06T08:24:37.837Z,100.00
2023-03-06T08:27:04.501Z,100.00
2023-03-06T08:29:36.864Z,100.00
2023-03-06T08:32:03.732Z,100.00
2023-03-06T08:34:31.218Z,100.00
2023-03-06T08:37:02.797Z,100.00
2023-03-06T08:39:29.686Z,100.00
2023-03-06T08:41:56.720Z,100.00
2023-03-06T08:44:23.489Z,100.00
2023-03-06T08:46:50.294Z,100.00
2023-03-06T08:49:16.925Z,100.00
2023-03-06T08:51:43.651Z,99.64
2023-03-06T08:54:16.864Z,99.84
2023-03-06T08:56:45.938Z,98.92
2023-03-06T08:59:13.711Z,98.63
2023-03-06T09:01:41.325Z,98.28
2023-03-06T09:04:32.729Z,97.52
2023-03-06T09:06:59.725Z,93.38
2023-03-06T09:09:26.732Z,90.59
2023-03-06T09:11:54.328Z,89.36
2023-03-06T09:14:40.298Z,88.05
2023-03-06T09:17:07.206Z,86.54
2023-03-06T09:20:10.523Z,84.20
2023-03-06T09:22:47.064Z,83.05
2023-03-06T09:32:22.950Z,80.53
2023-03-06T09:34:50.168Z,80.60
2023-03-06T09:37:17.443Z,80.78
2023-03-06T09:39:45.221Z,79.47
2023-03-06T09:42:18.309Z,79.16
2023-03-06T09:44:53.697Z,78.27
2023-03-06T09:47:31.068Z,77.30
2023-03-06T09:50:16.125Z,76.33
2023-03-06T09:52:43.049Z,74.96
2023-03-06T09:55:16.303Z,73.66
2023-03-06T09:57:56.905Z,74.26
2023-03-06T10:00:42.253Z,74.35
2023-03-06T10:03:21.048Z,73.34
2023-03-06T10:05:51.842Z,73.08
2023-03-06T10:08:30.517Z,73.00
2023-03-06T10:11:03.333Z,72.53
2023-03-06T10:13:43.368Z,73.19
2023-03-06T10:16:29.746Z,73.20
2023-03-06T10:19:00.689Z,71.79
2023-03-06T10:21:42.848Z,71.15
2023-03-06T10:24:40.758Z,71.25
2023-03-06T10:27:37.982Z,71.07
2023-03-06T10:30:06.075Z,69.29
2023-03-06T10:32:49.469Z,66.73
2023-03-06T10:35:21.939Z,65.26
2023-03-06T10:37:49.257Z,64.18
2023-03-06T10:40:26.817Z,63.74
2023-03-06T10:43:05.112Z,64.19
2023-03-06T10:45:50.308Z,63.81
2023-03-06T10:48:23.025Z,63.98
2023-03-06T10:50:50.723Z,62.64
2023-03-06T10:53:22.248Z,62.11
2023-03-06T10:55:53.861Z,62.49
2023-03-06T10:58:31.869Z,61.72
2023-03-06T11:01:01.964Z,62.13
2023-03-06T11:03:29.150Z,61.13
2023-03-06T11:06:15.357Z,60.16
2023-03-06T11:08:43.834Z,59.16
2023-03-06T11:11:12.585Z,57.83
2023-03-06T11:13:42.585Z,58.48
2023-03-06T11:16:26.922Z,58.87
2023-03-06T11:19:07.940Z,58.58
2023-03-06T11:21:36.671Z,58.90
2023-03-06T11:24:19.243Z,57.97
2023-03-06T11:27:18.196Z,57.48
2023-03-06T11:30:32.333Z,56.94
2023-03-06T11:33:34.731Z,57.07
2023-03-06T11:36:33.765Z,57.23
2023-03-06T11:39:38.239Z,58.22
2023-03-06T11:43:25.409Z,58.29
2023-03-06T11:46:04.988Z,57.76
2023-03-06T11:48:36.408Z,57.10
2023-03-06T11:51:15.694Z,56.34
2023-03-06T11:53:42.584Z,56.52
2023-03-06T11:56:18.635Z,55.60
2023-03-06T11:59:20.846Z,55.49
2023-03-06T12:02:19.445Z,55.06
2023-03-06T12:05:22.030Z,53.32
2023-03-06T12:07:57.135Z,52.89
2023-03-06T12:10:27.180Z,53.19
2023-03-06T12:13:13.929Z,53.78
2023-03-06T12:16:02.165Z,54.07
2023-03-06T12:18:42.244Z,53.45
2023-03-06T12:21:14.945Z,53.11
2023-03-06T12:23:41.545Z,51.83
2023-03-06T12:26:20.220Z,52.59
2023-03-06T12:29:11.702Z,52.80
2023-03-06T12:32:13.930Z,53.16
2023-03-06T12:35:06.195Z,51.64
2023-03-06T12:37:42.105Z,50.56
2023-03-06T12:40:46.971Z,49.69
2023-03-06T12:43:44.474Z,50.05
2023-03-06T12:46:21.777Z,49.91
2023-03-06T12:49:04.661Z,50.44
2023-03-06T12:51:32.032Z,50.70
2023-03-06T12:53:58.730Z,50.75
2023-03-06T12:56:26.315Z,50.49
2023-03-06T12:58:53.966Z,50.16
2023-03-06T13:01:59.301Z,49.62
2023-03-06T13:04:40.949Z,50.11
2023-03-06T13:07:44.821Z,50.41
2023-03-06T13:10:24.039Z,50.87
2023-03-06T13:13:00.372Z,51.63
2023-03-06T13:15:39.301Z,51.32
2023-03-06T13:18:23.250Z,50.82
2023-03-06T13:20:53.712Z,50.30
2023-03-06T13:23:34.621Z,50.35
2023-03-06T13:26:31.257Z,50.80
2023-03-06T13:28:58.598Z,51.84
2023-03-06T13:31:35.656Z,51.52
2023-03-06T13:34:04.817Z,50.58
2023-03-06T13:36:32.407Z,50.13
2023-03-06T13:39:25.246Z,50.31
2023-03-06T13:41:52.192Z,50.95
2023-03-06T13:44:24.815Z,50.04
2023-03-06T13:47:18.558Z,50.33
2023-03-06T13:49:46.163Z,49.68
2023-03-06T13:52:31.828Z,50.37
2023-03-06T13:55:20.313Z,50.28
2023-03-06T13:57:57.596Z,50.39
2023-03-06T14:00:39.621Z,50.71
2023-03-06T14:03:25.180Z,51.39
2023-03-06T14:05:52.546Z,51.88
2023-03-06T14:08:21.080Z,51.08
2023-03-06T14:10:57.338Z,50.97
2023-03-06T14:13:32.300Z,51.30
2023-03-06T14:16:02.029Z,51.32
2023-03-06T14:18:39.447Z,50.25
2023-03-06T14:21:11.289Z,50.03
2023-03-06T14:23:41.979Z,50.46
